Time;durP1;ratioP1;P1;durP2;ratioP2;P2;SDS_P1;SDS_P2;PMS_P1;PMS_P2;Temp;Humidity;BMP_temperature;BMP_pressure;BME280_temperature;BME280_humidity;BME280_pressure;Samples;Min_cycle;Max_cycle;Signal;HPM_P1;HPM_P2
2023/06/10 00:00:05;;;;;;;2.90;1.67;;;;;;;;;;5114528;28;20450;-84
2023/06/10 00:02:31;;;;;;;6.97;1.80;;;;;;;;;;5105913;28;20471;-84
2023/06/10 00:04:57;;;;;;;5.90;2.13;;;;;;;;;;5093292;28;20484;-77
2023/06/10 00:07:23;;;;;;;5.57;3.63;;;;;;;;;;5093422;28;20412;-77
2023/06/10 00:09:50;;;;;;;2.97;2.07;;;;;;;;;;5093189;28;20511;-78
2023/06/10 00:12:17;;;;;;;6.80;2.13;;;;;;;;;;5093386;28;20422;-77
2023/06/10 00:14:43;;;;;;;3.60;1.83;;;;;;;;;;5093373;28;20415;-77
2023/06/10 00:17:09;;;;;;;8.03;2.53;;;;;;;;;;5092954;28;20507;-78
2023/06/10 00:19:36;;;;;;;4.50;2.03;;;;;;;;;;5092854;28;20412;-86
2023/06/10 00:22:02;;;;;;;8.03;1.90;;;;;;;;;;5093300;28;20405;-78
2023/06/10 00:24:29;;;;;;;5.20;2.77;;;;;;;;;;5093413;28;20806;-77
2023/06/10 00:26:55;;;;;;;6.53;2.17;;;;;;;;;;5093151;28;20843;-84
2023/06/10 00:29:21;;;;;;;4.80;2.10;;;;;;;;;;5093191;28;20420;-78
2023/06/10 00:31:47;;;;;;;5.00;1.73;;;;;;;;;;5091563;28;20208;-80
2023/06/10 00:34:13;;;;;;;3.50;1.97;;;;;;;;;;5091799;28;20887;-81
2023/06/10 00:36:39;;;;;;;3.30;1.50;;;;;;;;;;5093021;28;20413;-81
2023/06/10 00:39:05;;;;;;;4.40;1.90;;;;;;;;;;5092893;28;20899;-81
2023/06/10 00:41:31;;;;;;;3.00;1.47;;;;;;;;;;5092943;28;20525;-78
2023/06/10 00:44:00;;;;;;;4.07;1.33;;;;;;;;;;5092710;28;20433;-78
2023/06/10 00:46:26;;;;;;;3.50;1.90;;;;;;;;;;5091660;28;20767;-78
2023/06/10 00:48:52;;;;;;;5.90;2.87;;;;;;;;;;5092404;28;20402;-78
2023/06/10 00:51:19;;;;;;;4.80;1.90;;;;;;;;;;5092723;28;20624;-78
2023/06/10 00:53:45;;;;;;;6.70;2.37;;;;;;;;;;5092707;28;20423;-78
2023/06/10 00:56:11;;;;;;;2.87;1.30;;;;;;;;;;5092709;28;20417;-78
2023/06/10 00:58:37;;;;;;;4.77;1.83;;;;;;;;;;5092458;28;20431;-84
2023/06/10 01:01:04;;;;;;;4.33;1.93;;;;;;;;;;5092761;28;20417;-77
2023/06/10 01:03:30;;;;;;;4.43;1.73;;;;;;;;;;5092159;28;20436;-78
2023/06/10 01:06:07;;;;;;;6.33;2.13;;;;;;;;;;5092910;28;20407;-78
2023/06/10 01:08:36;;;;;;;4.33;1.77;;;;;;;;;;5090210;28;20408;-78
2023/06/10 01:11:04;;;;;;;3.30;2.00;;;;;;;;;;5092495;28;20469;-79
2023/06/10 01:13:31;;;;;;;3.30;1.17;;;;;;;;;;5092557;28;20413;-78
2023/06/10 01:15:57;;;;;;;5.10;1.67;;;;;;;;;;5091295;28;20432;-78
2023/06/10 01:18:23;;;;;;;3.27;1.60;;;;;;;;;;5091024;28;20828;-77
2023/06/10 01:20:49;;;;;;;5.77;2.43;;;;;;;;;;5092564;28;20447;-78
2023/06/10 01:23:16;;;;;;;5.10;2.17;;;;;;;;;;5092644;28;20406;-78
2023/06/10 01:25:48;;;;;;;3.63;1.73;;;;;;;;;;5092591;28;20416;-80
2023/06/10 01:28:22;;;;;;;3.80;2.30;;;;;;;;;;5089908;28;20902;-78
2023/06/10 01:30:56;;;;;;;3.47;1.07;;;;;;;;;;5092216;28;20512;-78
2023/06/10 01:33:33;;;;;;;6.00;2.00;;;;;;;;;;5095698;28;20414;-78
2023/06/10 01:36:00;;;;;;;3.93;2.30;;;;;;;;;;5094600;28;20410;-78
2023/06/10 01:38:27;;;;;;;4.30;1.73;;;;;;;;;;5096484;28;20412;-77
2023/06/10 01:40:56;;;;;;;7.43;2.10;;;;;;;;;;5096488;28;20780;-77
2023/06/10 01:43:22;;;;;;;4.27;1.70;;;;;;;;;;5096348;28;20537;-79
2023/06/10 01:45:48;;;;;;;4.53;2.00;;;;;;;;;;5096170;28;20415;-77
2023/06/10 01:48:14;;;;;;;7.53;2.00;;;;;;;;;;5095978;28;20398;-77
2023/06/10 01:50:40;;;;;;;3.57;1.50;;;;;;;;;;5096564;28;20814;-77
2023/06/10 01:53:06;;;;;;;3.43;1.20;;;;;;;;;;5096670;28;20497;-77
2023/06/10 01:55:32;;;;;;;3.30;1.03;;;;;;;;;;5096620;28;20627;-83
2023/06/10 01:57:58;;;;;;;3.33;2.20;;;;;;;;;;5096535;28;20406;-77
2023/06/10 02:00:23;;;;;;;5.60;1.10;;;;;;;;;;5096468;28;20432;-83
2023/06/10 02:02:49;;;;;;;3.67;1.43;;;;;;;;;;5096130;28;20543;-78
2023/06/10 02:05:15;;;;;;;2.27;1.17;;;;;;;;;;5096421;28;20169;-83
2023/06/10 02:07:41;;;;;;;4.10;2.10;;;;;;;;;;5096342;28;20429;-83
2023/06/10 02:10:07;;;;;;;3.20;2.27;;;;;;;;;;5096102;28;20228;-77
2023/06/10 02:12:33;;;;;;;3.67;1.50;;;;;;;;;;5096221;28;20173;-77
2023/06/10 02:14:59;;;;;;;5.70;1.83;;;;;;;;;;5096228;28;20496;-77
2023/06/10 02:17:26;;;;;;;2.90;1.33;;;;;;;;;;5095603;28;20409;-77
2023/06/10 02:19:56;;;;;;;4.73;1.80;;;;;;;;;;5096049;28;20216;-77
2023/06/10 02:22:23;;;;;;;7.57;1.53;;;;;;;;;;5094869;28;20399;-83
2023/06/10 02:24:49;;;;;;;2.60;0.90;;;;;;;;;;5094731;28;20424;-82
2023/06/10 02:27:15;;;;;;;3.20;1.00;;;;;;;;;;5094716;28;20493;-77
2023/06/10 02:29:41;;;;;;;3.60;1.40;;;;;;;;;;5095816;28;20410;-78
2023/06/10 02:32:08;;;;;;;3.73;0.87;;;;;;;;;;5095742;28;20774;-86
2023/06/10 02:34:34;;;;;;;4.50;1.13;;;;;;;;;;5096003;28;20404;-87
2023/06/10 02:37:00;;;;;;;3.20;1.53;;;;;;;;;;5096013;28;20407;-87
2023/06/10 02:39:26;;;;;;;7.00;1.80;;;;;;;;;;5095891;28;20738;-87
2023/06/10 02:41:52;;;;;;;2.90;1.40;;;;;;;;;;5095627;28;20412;-77
2023/06/10 02:44:19;;;;;;;5.00;1.20;;;;;;;;;;5095315;28;20408;-86
2023/06/10 02:46:45;;;;;;;4.97;1.57;;;;;;;;;;5095348;28;20410;-79
2023/06/10 02:49:11;;;;;;;5.33;1.30;;;;;;;;;;5095571;28;20419;-81
2023/06/10 02:51:37;;;;;;;2.83;1.47;;;;;;;;;;5095461;28;20516;-87
2023/06/10 02:54:03;;;;;;;2.10;0.80;;;;;;;;;;5095462;28;20404;-83
2023/06/10 02:56:29;;;;;;;3.17;1.23;;;;;;;;;;5095496;28;20409;-78
2023/06/10 02:58:55;;;;;;;3.80;2.17;;;;;;;;;;5095366;28;20501;-85
2023/06/10 03:01:21;;;;;;;3.20;1.17;;;;;;;;;;5095016;28;20410;-77
2023/06/10 03:03:47;;;;;;;3.43;1.77;;;;;;;;;;5095273;28;20410;-78
2023/06/10 03:06:14;;;;;;;2.70;1.27;;;;;;;;;;5095373;28;20769;-78
2023/06/10 03:08:40;;;;;;;1.97;0.63;;;;;;;;;;5095207;28;20412;-77
2023/06/10 03:11:06;;;;;;;3.07;1.27;;;;;;;;;;5094856;28;20496;-77
2023/06/10 03:13:32;;;;;;;4.13;0.90;;;;;;;;;;5095064;28;20410;-83
2023/06/10 03:15:58;;;;;;;3.13;1.27;;;;;;;;;;5094834;28;20417;-81
2023/06/10 03:18:27;;;;;;;3.10;1.33;;;;;;;;;;5094590;28;20432;-79
2023/06/10 03:20:54;;;;;;;4.53;1.30;;;;;;;;;;5094974;28;20517;-77
2023/06/10 03:23:20;;;;;;;2.57;1.50;;;;;;;;;;5094840;28;20493;-78
2023/06/10 03:25:46;;;;;;;3.23;0.90;;;;;;;;;;5094891;28;20406;-77
2023/06/10 03:28:12;;;;;;;4.47;0.90;;;;;;;;;;5094839;28;20518;-77
2023/06/10 03:30:38;;;;;;;3.10;0.83;;;;;;;;;;5094695;28;20479;-79
2023/06/10 03:33:05;;;;;;;2.50;1.23;;;;;;;;;;5094440;28;20916;-78
2023/06/10 03:35:32;;;;;;;5.22;1.35;;;;;;;;;;5093518;28;20440;-80
2023/06/10 03:37:58;;;;;;;3.47;1.40;;;;;;;;;;5094480;28;20636;-77
2023/06/10 03:40:24;;;;;;;4.10;0.80;;;;;;;;;;5094419;28;20414;-80
2023/06/10 03:42:49;;;;;;;4.67;0.97;;;;;;;;;;5094499;28;20416;-77
2023/06/10 03:45:15;;;;;;;6.50;1.23;;;;;;;;;;5094507;28;20503;-83
2023/06/10 03:47:43;;;;;;;1.73;1.13;;;;;;;;;;5092779;28;20183;-80
2023/06/10 03:50:09;;;;;;;3.43;1.77;;;;;;;;;;5094289;28;20441;-77
2023/06/10 03:52:36;;;;;;;2.80;1.00;;;;;;;;;;5094229;28;20476;-82
2023/06/10 03:55:01;;;;;;;3.70;0.73;;;;;;;;;;5093506;28;20431;-82
2023/06/10 03:57:27;;;;;;;6.20;1.13;;;;;;;;;;5094228;28;20440;-78
2023/06/10 03:59:55;;;;;;;2.70;0.70;;;;;;;;;;5092934;28;20425;-77
2023/06/10 04:02:21;;;;;;;2.13;0.93;;;;;;;;;;5093820;28;20170;-77
2023/06/10 04:04:47;;;;;;;4.03;1.40;;;;;;;;;;5094046;28;20401;-78
2023/06/10 04:07:13;;;;;;;2.83;0.97;;;;;;;;;;5093992;28;20407;-78
2023/06/10 04:09:39;;;;;;;2.90;1.20;;;;;;;;;;5093682;28;20399;-77
2023/06/10 04:12:10;;;;;;;4.43;1.00;;;;;;;;;;5093981;28;20473;-81
2023/06/10 04:14:37;;;;;;;5.40;1.43;;;;;;;;;;5093959;28;20429;-77
2023/06/10 04:17:06;;;;;;;1.57;0.73;;;;;;;;;;5093473;28;20477;-79
2023/06/10 04:19:32;;;;;;;3.07;0.70;;;;;;;;;;5093747;28;20432;-81
2023/06/10 04:21:58;;;;;;;4.90;1.20;;;;;;;;;;5093819;28;20406;-78
2023/06/10 04:24:24;;;;;;;2.90;1.30;;;;;;;;;;5093762;28;20405;-78
2023/06/10 04:26:50;;;;;;;1.77;0.37;;;;;;;;;;5092471;28;20418;-77
2023/06/10 04:29:15;;;;;;;4.87;1.33;;;;;;;;;;5092361;28;20411;-79
2023/06/10 04:31:41;;;;;;;6.20;0.93;;;;;;;;;;5093140;28;20484;-80
2023/06/10 04:34:07;;;;;;;2.60;0.63;;;;;;;;;;5093643;28;20407;-78
2023/06/10 04:36:33;;;;;;;3.33;1.10;;;;;;;;;;5093516;28;20502;-77
2023/06/10 04:38:59;;;;;;;2.63;0.97;;;;;;;;;;5093547;28;20557;-83
2023/06/10 04:41:27;;;;;;;5.73;1.57;;;;;;;;;;5093349;28;20406;-82
2023/06/10 04:43:53;;;;;;;2.90;1.47;;;;;;;;;;5093780;28;20897;-92
2023/06/10 04:46:19;;;;;;;2.97;0.70;;;;;;;;;;5093552;28;20422;-84
2023/06/10 04:48:46;;;;;;;4.23;0.63;;;;;;;;;;5093148;28;20414;-76
2023/06/10 04:51:13;;;;;;;2.80;0.50;;;;;;;;;;5092529;28;20838;-84
2023/06/10 04:53:39;;;;;;;2.40;0.57;;;;;;;;;;5090193;28;20442;-83
2023/06/10 04:56:05;;;;;;;4.80;0.87;;;;;;;;;;5092871;28;20412;-88
2023/06/10 04:58:31;;;;;;;3.20;0.93;;;;;;;;;;5093088;28;20406;-88
2023/06/10 05:00:57;;;;;;;2.27;0.77;;;;;;;;;;5092451;28;20415;-87
2023/06/10 05:03:23;;;;;;;3.43;0.37;;;;;;;;;;5091724;28;20173;-78
2023/06/10 05:05:49;;;;;;;2.70;0.60;;;;;;;;;;5092936;28;20502;-77
2023/06/10 05:08:15;;;;;;;3.00;0.73;;;;;;;;;;5093072;28;20185;-77
2023/06/10 05:10:40;;;;;;;3.93;0.63;;;;;;;;;;5092876;28;20491;-77
2023/06/10 05:13:06;;;;;;;2.77;0.73;;;;;;;;;;5091622;28;20403;-77
2023/06/10 05:15:32;;;;;;;4.10;0.50;;;;;;;;;;5092985;28;20496;-78
2023/06/10 05:17:58;;;;;;;2.87;0.70;;;;;;;;;;5092713;28;20164;-77
2023/06/10 05:20:25;;;;;;;3.17;0.90;;;;;;;;;;5092949;28;20408;-77
2023/06/10 05:22:51;;;;;;;3.20;0.73;;;;;;;;;;5092904;28;20933;-77
2023/06/10 05:25:18;;;;;;;3.13;0.93;;;;;;;;;;5092958;28;20410;-78
2023/06/10 05:27:44;;;;;;;2.60;0.97;;;;;;;;;;5092882;28;20790;-78
2023/06/10 05:30:11;;;;;;;3.63;1.10;;;;;;;;;;5092261;28;20456;-77
2023/06/10 05:32:37;;;;;;;3.77;0.67;;;;;;;;;;5091789;28;20184;-77
2023/06/10 05:35:04;;;;;;;4.30;0.73;;;;;;;;;;5092940;28;20420;-78
2023/06/10 05:37:30;;;;;;;2.00;0.50;;;;;;;;;;5092806;28;20511;-78
2023/06/10 05:39:56;;;;;;;5.77;1.50;;;;;;;;;;5092765;28;20431;-78
2023/06/10 05:42:22;;;;;;;3.97;0.87;;;;;;;;;;5092746;28;20174;-76
2023/06/10 05:44:48;;;;;;;2.80;0.87;;;;;;;;;;5092616;28;20539;-82
2023/06/10 05:47:16;;;;;;;2.93;0.93;;;;;;;;;;5093706;28;20423;-79
2023/06/10 05:49:42;;;;;;;3.23;0.43;;;;;;;;;;5092454;28;20176;-79
2023/06/10 05:52:08;;;;;;;2.77;0.80;;;;;;;;;;5091105;28;20475;-78
2023/06/10 05:54:34;;;;;;;1.60;0.40;;;;;;;;;;5091972;28;20441;-82
2023/06/10 05:57:00;;;;;;;3.40;1.20;;;;;;;;;;5092266;28;20414;-77
2023/06/10 05:59:26;;;;;;;5.40;0.77;;;;;;;;;;5092130;28;20766;-77
2023/06/10 06:01:52;;;;;;;1.57;0.60;;;;;;;;;;5091611;28;20171;-79
2023/06/10 06:04:18;;;;;;;1.80;0.53;;;;;;;;;;5091393;28;20183;-77
2023/06/10 06:06:44;;;;;;;4.27;0.63;;;;;;;;;;5090849;28;20640;-84
2023/06/10 06:09:10;;;;;;;3.80;0.60;;;;;;;;;;5091408;28;20919;-76
2023/06/10 06:11:36;;;;;;;3.83;0.23;;;;;;;;;;5092108;28;20524;-78
2023/06/10 06:14:01;;;;;;;4.80;1.83;;;;;;;;;;5090454;28;20216;-76
2023/06/10 06:16:27;;;;;;;3.83;0.57;;;;;;;;;;5091871;28;20424;-81
2023/06/10 06:18:53;;;;;;;2.40;0.50;;;;;;;;;;5094486;28;20187;-77
2023/06/10 06:21:19;;;;;;;2.63;0.93;;;;;;;;;;5095200;28;20592;-76
2023/06/10 06:23:45;;;;;;;2.30;1.13;;;;;;;;;;5095744;28;20406;-77
2023/06/10 06:26:11;;;;;;;2.20;0.53;;;;;;;;;;5094418;28;20173;-77
2023/06/10 06:28:37;;;;;;;2.77;0.87;;;;;;;;;;5095698;28;20188;-79
2023/06/10 06:31:03;;;;;;;1.70;0.80;;;;;;;;;;5093910;28;20548;-77
2023/06/10 06:33:35;;;;;;;2.67;1.20;;;;;;;;;;5096005;28;20265;-77
2023/06/10 06:36:07;;;;;;;3.37;0.80;;;;;;;;;;5096020;28;20405;-77
2023/06/10 06:38:33;;;;;;;3.33;0.97;;;;;;;;;;5095660;28;20501;-77
2023/06/10 06:41:02;;;;;;;2.10;1.17;;;;;;;;;;5095733;28;20497;-81
2023/06/10 06:43:29;;;;;;;3.03;1.07;;;;;;;;;;5094444;28;20421;-77
2023/06/10 06:45:55;;;;;;;5.50;1.30;;;;;;;;;;5095259;28;20417;-78
2023/06/10 06:48:21;;;;;;;5.30;0.77;;;;;;;;;;5095503;28;20410;-80
2023/06/10 06:50:47;;;;;;;4.40;1.23;;;;;;;;;;5094175;28;20485;-78
2023/06/10 06:53:13;;;;;;;3.80;1.30;;;;;;;;;;5095494;28;20418;-77
2023/06/10 06:55:39;;;;;;;2.40;0.90;;;;;;;;;;5088325;28;20492;-81
2023/06/10 06:58:05;;;;;;;3.40;1.20;;;;;;;;;;5094103;28;20174;-80
2023/06/10 07:00:31;;;;;;;4.30;1.67;;;;;;;;;;5094101;28;20170;-79
2023/06/10 07:02:57;;;;;;;6.00;1.30;;;;;;;;;;5094022;28;20211;-79
2023/06/10 07:05:25;;;;;;;2.23;0.80;;;;;;;;;;5093813;28;20452;-78
2023/06/10 07:07:54;;;;;;;2.80;0.80;;;;;;;;;;5093751;28;20466;-79
2023/06/10 07:10:21;;;;;;;4.87;1.53;;;;;;;;;;5093612;28;20485;-79
2023/06/10 07:12:47;;;;;;;2.33;0.67;;;;;;;;;;5093844;28;20422;-78
2023/06/10 07:15:13;;;;;;;4.63;1.27;;;;;;;;;;5093780;28;20757;-80
2023/06/10 07:17:39;;;;;;;1.47;0.67;;;;;;;;;;5093092;28;20208;-79
2023/06/10 07:20:05;;;;;;;3.00;1.17;;;;;;;;;;5093745;28;20187;-83
2023/06/10 07:22:31;;;;;;;1.80;0.53;;;;;;;;;;5093909;28;20182;-80
2023/06/10 07:24:58;;;;;;;3.83;1.40;;;;;;;;;;5093594;28;20485;-82
2023/06/10 07:27:24;;;;;;;3.10;0.63;;;;;;;;;;5092512;28;20168;-82
2023/06/10 07:29:50;;;;;;;2.87;0.70;;;;;;;;;;5093700;28;20412;-82
2023/06/10 07:32:15;;;;;;;2.97;1.37;;;;;;;;;;5093221;28;20465;-82
2023/06/10 07:34:41;;;;;;;3.90;0.97;;;;;;;;;;5092267;28;20176;-83
2023/06/10 07:37:08;;;;;;;1.90;0.93;;;;;;;;;;5093511;28;20175;-80
2023/06/10 07:39:34;;;;;;;2.20;0.70;;;;;;;;;;5093477;28;20617;-83
2023/06/10 07:42:00;;;;;;;3.30;1.17;;;;;;;;;;5093324;28;20418;-81
2023/06/10 07:44:26;;;;;;;2.83;0.93;;;;;;;;;;5093240;28;20410;-83
2023/06/10 07:46:52;;;;;;;2.70;0.97;;;;;;;;;;5093051;28;20195;-82
2023/06/10 07:49:18;;;;;;;2.47;1.17;;;;;;;;;;5093252;28;20658;-81
2023/06/10 07:51:44;;;;;;;4.47;0.80;;;;;;;;;;5093198;28;20473;-81
2023/06/10 07:54:12;;;;;;;4.93;1.63;;;;;;;;;;5093049;28;20486;-82
2023/06/10 07:56:38;;;;;;;3.13;1.40;;;;;;;;;;5093150;28;20502;-81
2023/06/10 07:59:03;;;;;;;6.43;1.37;;;;;;;;;;5093172;28;20505;-80
2023/06/10 08:01:31;;;;;;;2.03;0.80;;;;;;;;;;5092825;28;20176;-82
2023/06/10 08:03:57;;;;;;;3.07;1.20;;;;;;;;;;5092813;28;20660;-84
2023/06/10 08:06:22;;;;;;;3.70;0.97;;;;;;;;;;5093550;28;20395;-79
2023/06/10 08:08:48;;;;;;;4.17;1.47;;;;;;;;;;5094122;28;20172;-79
2023/06/10 08:11:14;;;;;;;3.50;1.20;;;;;;;;;;5093761;28;20222;-82
2023/06/10 08:13:40;;;;;;;4.00;1.50;;;;;;;;;;5094037;28;20662;-86
2023/06/10 08:16:07;;;;;;;5.20;1.10;;;;;;;;;;5093636;28;20407;-85
2023/06/10 08:18:33;;;;;;;2.40;0.80;;;;;;;;;;5094031;28;20879;-85
2023/06/10 08:21:00;;;;;;;4.60;1.27;;;;;;;;;;5093754;28;20484;-83
2023/06/10 08:23:26;;;;;;;2.70;0.90;;;;;;;;;;5093822;28;20414;-85
2023/06/10 08:25:52;;;;;;;4.90;1.50;;;;;;;;;;5093758;28;20790;-81
2023/06/10 08:28:18;;;;;;;5.80;1.40;;;;;;;;;;5093691;28;20656;-81
2023/06/10 08:30:45;;;;;;;2.97;1.30;;;;;;;;;;5093391;28;20414;-79
2023/06/10 08:33:11;;;;;;;6.07;1.60;;;;;;;;;;5092339;28;21101;-82
2023/06/10 08:35:37;;;;;;;3.73;1.27;;;;;;;;;;5092316;28;20426;-84
2023/06/10 08:38:09;;;;;;;2.73;1.27;;;;;;;;;;5092070;28;20168;-80
2023/06/10 08:40:35;;;;;;;3.37;1.80;;;;;;;;;;5090123;28;20208;-79
2023/06/10 08:43:06;;;;;;;5.00;2.30;;;;;;;;;;5093089;28;20434;-79
2023/06/10 08:45:35;;;;;;;2.10;1.30;;;;;;;;;;5089895;28;20406;-85
2023/06/10 08:48:06;;;;;;;3.77;1.60;;;;;;;;;;5093048;28;20514;-84
2023/06/10 08:50:35;;;;;;;1.10;0.70;;;;;;;;;;5091572;28;20437;-80
2023/06/10 08:53:01;;;;;;;3.20;1.40;;;;;;;;;;5093374;28;20998;-80
2023/06/10 08:55:33;;;;;;;2.70;1.30;;;;;;;;;;5093330;28;20737;-80
2023/06/10 08:58:02;;;;;;;2.80;1.27;;;;;;;;;;5093261;28;20430;-81
2023/06/10 09:00:29;;;;;;;3.00;1.20;;;;;;;;;;5092896;28;20538;-80
2023/06/10 09:02:56;;;;;;;2.10;1.10;;;;;;;;;;5093036;28;20960;-82
2023/06/10 09:05:22;;;;;;;2.60;1.97;;;;;;;;;;5093255;28;20402;-81
2023/06/10 09:07:52;;;;;;;2.93;1.53;;;;;;;;;;5093216;28;20419;-81
2023/06/10 09:10:18;;;;;;;1.50;1.30;;;;;;;;;;5092856;28;20532;-81
2023/06/10 09:12:44;;;;;;;2.10;1.00;;;;;;;;;;5093085;28;20429;-81
2023/06/10 09:15:12;;;;;;;2.80;1.93;;;;;;;;;;5092773;28;20406;-81
2023/06/10 09:17:39;;;;;;;1.80;1.20;;;;;;;;;;5093125;28;20418;-81
2023/06/10 09:20:06;;;;;;;6.37;1.97;;;;;;;;;;5092983;28;20402;-84
2023/06/10 09:22:33;;;;;;;2.80;1.97;;;;;;;;;;5092901;28;20499;-83
2023/06/10 09:25:03;;;;;;;5.13;1.90;;;;;;;;;;5093030;28;20407;-81
2023/06/10 09:27:31;;;;;;;2.50;1.57;;;;;;;;;;5092527;28;20414;-84
2023/06/10 09:29:58;;;;;;;3.50;1.87;;;;;;;;;;5087576;28;20394;-79
2023/06/10 09:32:24;;;;;;;4.03;2.30;;;;;;;;;;5092431;28;20402;-79
2023/06/10 09:34:50;;;;;;;1.67;1.43;;;;;;;;;;5092332;28;20906;-86
2023/06/10 09:37:23;;;;;;;3.43;1.53;;;;;;;;;;5089821;28;20778;-85
2023/06/10 09:40:06;;;;;;;4.70;2.00;;;;;;;;;;5093106;28;20398;-85
2023/06/10 09:42:35;;;;;;;4.63;1.87;;;;;;;;;;5092991;28;20793;-79
2023/06/10 09:45:02;;;;;;;2.40;1.60;;;;;;;;;;5089096;28;20410;-85
2023/06/10 09:47:28;;;;;;;3.50;1.63;;;;;;;;;;5089764;28;20848;-84
2023/06/10 09:49:54;;;;;;;4.13;2.20;;;;;;;;;;5091201;28;20512;-90
2023/06/10 09:52:27;;;;;;;3.30;2.17;;;;;;;;;;5093793;28;20198;-79
2023/06/10 09:54:54;;;;;;;2.90;1.70;;;;;;;;;;5096812;28;20179;-94
2023/06/10 09:57:21;;;;;;;3.17;1.60;;;;;;;;;;5096612;28;20874;-83
2023/06/10 09:59:47;;;;;;;3.07;1.67;;;;;;;;;;5094567;28;20426;-85
2023/06/10 10:02:16;;;;;;;3.67;2.03;;;;;;;;;;5093956;28;20485;-80
2023/06/10 10:04:43;;;;;;;3.80;1.70;;;;;;;;;;5095618;28;20902;-80
2023/06/10 10:07:10;;;;;;;3.00;1.80;;;;;;;;;;5095301;28;20411;-85
2023/06/10 10:09:36;;;;;;;3.10;2.10;;;;;;;;;;5095890;28;20834;-80
2023/06/10 10:12:03;;;;;;;3.07;1.70;;;;;;;;;;5095944;28;20845;-83
2023/06/10 10:14:31;;;;;;;5.17;2.13;;;;;;;;;;5094864;28;20430;-81
2023/06/10 10:16:58;;;;;;;5.17;2.10;;;;;;;;;;5095299;28;20406;-80
2023/06/10 10:19:28;;;;;;;2.83;1.40;;;;;;;;;;5095912;28;20486;-81
2023/06/10 10:21:56;;;;;;;4.57;2.10;;;;;;;;;;5095681;28;20538;-82
2023/06/10 10:24:23;;;;;;;3.83;2.23;;;;;;;;;;5095760;28;20489;-86
2023/06/10 10:26:51;;;;;;;2.97;1.83;;;;;;;;;;5095833;28;20489;-81
2023/06/10 10:29:17;;;;;;;5.00;1.50;;;;;;;;;;5095637;28;20906;-80
2023/06/10 10:31:47;;;;;;;2.60;1.23;;;;;;;;;;5095140;28;20414;-81
2023/06/10 10:34:16;;;;;;;2.20;1.50;;;;;;;;;;5113629;28;20179;-80
2023/06/10 10:36:43;;;;;;;3.33;2.67;;;;;;;;;;5115895;28;20409;-81
2023/06/10 10:39:09;;;;;;;3.43;1.60;;;;;;;;;;5115673;28;20466;-85
2023/06/10 10:41:37;;;;;;;4.03;2.30;;;;;;;;;;5115675;28;21052;-84
2023/06/10 10:44:07;;;;;;;3.57;2.10;;;;;;;;;;5116303;28;20409;-82
2023/06/10 10:46:42;;;;;;;2.50;1.73;;;;;;;;;;5114232;28;20496;-90
2023/06/10 10:49:09;;;;;;;5.27;2.83;;;;;;;;;;5114910;28;20602;-82
2023/06/10 10:51:36;;;;;;;5.70;2.23;;;;;;;;;;5115661;28;20892;-84
2023/06/10 10:54:13;;;;;;;2.90;2.27;;;;;;;;;;5115279;28;20413;-84
2023/06/10 10:56:39;;;;;;;3.73;2.50;;;;;;;;;;5115162;28;20401;-84
2023/06/10 10:59:05;;;;;;;2.20;1.93;;;;;;;;;;5114737;28;20868;-81
2023/06/10 11:01:41;;;;;;;3.80;2.43;;;;;;;;;;5099964;28;20973;-81
2023/06/10 11:04:09;;;;;;;4.93;2.83;;;;;;;;;;5094543;28;20413;-82
2023/06/10 11:06:35;;;;;;;3.63;2.77;;;;;;;;;;5094916;28;20906;-81
2023/06/10 11:09:01;;;;;;;2.83;2.00;;;;;;;;;;5094679;28;20403;-85
2023/06/10 11:11:28;;;;;;;4.63;2.43;;;;;;;;;;5094682;28;20234;-86
2023/06/10 11:14:06;;;;;;;3.80;2.57;;;;;;;;;;5093509;28;20464;-83
2023/06/10 11:16:40;;;;;;;4.00;2.60;;;;;;;;;;5092959;28;20425;-84
2023/06/10 11:19:06;;;;;;;3.70;2.60;;;;;;;;;;5094639;28;20399;-83
2023/06/10 11:21:32;;;;;;;3.20;2.90;;;;;;;;;;5094517;28;20477;-86
2023/06/10 11:24:12;;;;;;;4.40;2.40;;;;;;;;;;5094450;28;20506;-83
2023/06/10 11:26:44;;;;;;;4.53;3.10;;;;;;;;;;5102577;28;20179;-85
2023/06/10 11:29:10;;;;;;;5.77;3.00;;;;;;;;;;5114986;28;20417;-83
2023/06/10 11:31:39;;;;;;;4.50;2.90;;;;;;;;;;5109370;22;20524;-84
2023/06/10 11:34:06;;;;;;;3.80;2.30;;;;;;;;;;5034125;28;20959;-85
2023/06/10 11:36:33;;;;;;;5.80;3.40;;;;;;;;;;5034003;28;20401;-83
2023/06/10 11:39:03;;;;;;;3.17;2.87;;;;;;;;;;5033653;28;20918;-87
2023/06/10 11:41:30;;;;;;;3.23;2.93;;;;;;;;;;5034741;28;20469;-83
2023/06/10 11:43:57;;;;;;;3.83;3.20;;;;;;;;;;5034455;28;20420;-85
2023/06/10 11:46:23;;;;;;;4.73;3.00;;;;;;;;;;5032987;28;20433;-88
2023/06/10 11:48:52;;;;;;;4.40;3.33;;;;;;;;;;5032131;28;20441;-85
2023/06/10 11:51:18;;;;;;;4.20;2.93;;;;;;;;;;5029775;28;20421;-83
2023/06/10 11:53:50;;;;;;;3.70;2.40;;;;;;;;;;5049394;28;20953;-82
2023/06/10 11:56:23;;;;;;;8.80;3.93;;;;;;;;;;5033969;28;20441;-86
2023/06/10 11:59:08;;;;;;;3.10;2.80;;;;;;;;;;5033906;28;20420;-83
2023/06/10 12:01:36;;;;;;;3.40;3.10;;;;;;;;;;5033542;28;20468;-82
2023/06/10 12:04:06;;;;;;;5.27;2.87;;;;;;;;;;5032778;28;20774;-83
2023/06/10 12:06:48;;;;;;;5.20;2.90;;;;;;;;;;5033874;28;20463;-82
2023/06/10 12:09:33;;;;;;;3.13;2.73;;;;;;;;;;5032510;28;21013;-83
2023/06/10 12:12:00;;;;;;;4.90;3.10;;;;;;;;;;5032262;28;20421;-83
2023/06/10 12:14:44;;;;;;;2.43;2.23;;;;;;;;;;5033658;28;20398;-85
2023/06/10 12:17:10;;;;;;;4.83;3.40;;;;;;;;;;5033153;28;20405;-84
2023/06/10 12:19:39;;;;;;;3.40;3.10;;;;;;;;;;5033586;28;20404;-85
2023/06/10 12:22:05;;;;;;;3.93;3.50;;;;;;;;;;5032105;28;20472;-83
2023/06/10 12:24:31;;;;;;;3.90;2.80;;;;;;;;;;5032368;28;20413;-82
2023/06/10 12:26:57;;;;;;;3.47;3.17;;;;;;;;;;5033536;28;20417;-82
2023/06/10 12:29:26;;;;;;;2.97;2.30;;;;;;;;;;5033329;28;20174;-85
2023/06/10 12:32:04;;;;;;;3.80;3.17;;;;;;;;;;5033073;28;20602;-83
2023/06/10 12:34:30;;;;;;;3.20;2.90;;;;;;;;;;5033393;28;20923;-87
2023/06/10 12:36:56;;;;;;;3.90;2.83;;;;;;;;;;5033541;28;20500;-83
2023/06/10 12:39:22;;;;;;;3.00;2.70;;;;;;;;;;5033445;28;20166;-86
2023/06/10 12:41:49;;;;;;;3.43;2.70;;;;;;;;;;5033175;28;20541;-83
2023/06/10 12:44:15;;;;;;;3.30;2.57;;;;;;;;;;5033025;28;20174;-82
2023/06/10 12:46:41;;;;;;;3.40;2.80;;;;;;;;;;5032910;28;20543;-82
2023/06/10 12:49:07;;;;;;;3.57;3.27;;;;;;;;;;5033194;28;20405;-83
2023/06/10 12:51:35;;;;;;;4.10;2.57;;;;;;;;;;5033174;28;20427;-84
2023/06/10 12:54:00;;;;;;;4.10;3.70;;;;;;;;;;5031810;28;20177;-80
2023/06/10 12:56:27;;;;;;;4.87;3.23;;;;;;;;;;5032980;28;20464;-81
2023/06/10 12:58:52;;;;;;;7.57;3.30;;;;;;;;;;5033063;28;20175;-81
2023/06/10 13:01:18;;;;;;;4.27;3.73;;;;;;;;;;5032599;28;21079;-80
2023/06/10 13:03:44;;;;;;;4.07;3.40;;;;;;;;;;5031622;28;20178;-86
2023/06/10 13:06:12;;;;;;;4.93;3.20;;;;;;;;;;5032828;28;20244;-87
2023/06/10 13:08:38;;;;;;;4.30;3.90;;;;;;;;;;5033031;28;20559;-89
2023/06/10 13:11:07;;;;;;;3.13;2.90;;;;;;;;;;5032974;28;20424;-81
2023/06/10 13:13:42;;;;;;;3.17;2.50;;;;;;;;;;5032976;28;20220;-81
2023/06/10 13:16:08;;;;;;;3.87;3.40;;;;;;;;;;5032395;28;20409;-81
2023/06/10 13:18:37;;;;;;;3.90;3.60;;;;;;;;;;5032772;28;20448;-83
2023/06/10 13:21:06;;;;;;;5.83;3.17;;;;;;;;;;5032784;28;20468;-86
2023/06/10 13:23:32;;;;;;;4.57;3.53;;;;;;;;;;5032808;28;20532;-83
2023/06/10 13:25:58;;;;;;;3.50;2.90;;;;;;;;;;5032738;28;20479;-81
2023/06/10 13:28:25;;;;;;;4.30;2.70;;;;;;;;;;5036447;28;20413;-82
2023/06/10 13:30:51;;;;;;;3.67;3.00;;;;;;;;;;5035010;28;20264;-83
2023/06/10 13:33:16;;;;;;;3.37;2.70;;;;;;;;;;5036742;28;20417;-81
2023/06/10 13:35:43;;;;;;;4.47;3.60;;;;;;;;;;5035421;28;20174;-89
2023/06/10 13:38:08;;;;;;;8.43;3.30;;;;;;;;;;5036782;28;20208;-81
2023/06/10 13:40:37;;;;;;;3.90;3.60;;;;;;;;;;5035491;28;20499;-86
2023/06/10 13:43:09;;;;;;;3.73;3.40;;;;;;;;;;5035225;28;20174;-81
2023/06/10 13:45:35;;;;;;;4.80;3.00;;;;;;;;;;5034978;28;20508;-89
2023/06/10 13:48:04;;;;;;;6.23;4.07;;;;;;;;;;5036731;28;20449;-88
2023/06/10 13:50:29;;;;;;;5.60;3.37;;;;;;;;;;5036528;28;20201;-87
2023/06/10 13:52:55;;;;;;;3.07;2.87;;;;;;;;;;5036524;28;20804;-87
2023/06/10 13:55:21;;;;;;;5.17;3.30;;;;;;;;;;5036455;28;20174;-90
2023/06/10 13:57:47;;;;;;;3.27;3.00;;;;;;;;;;5036593;28;20413;-81
2023/06/10 14:00:14;;;;;;;4.83;3.20;;;;;;;;;;5035741;28;20186;-83
2023/06/10 14:02:40;;;;;;;3.87;3.30;;;;;;;;;;5036198;28;20627;-81
2023/06/10 14:05:06;;;;;;;3.73;3.30;;;;;;;;;;5036275;28;20416;-81
2023/06/10 14:07:32;;;;;;;5.37;2.83;;;;;;;;;;5035706;28;20249;-81
2023/06/10 14:10:00;;;;;;;3.67;2.67;;;;;;;;;;5035679;28;20413;-81
2023/06/10 14:12:26;;;;;;;6.10;2.80;;;;;;;;;;5036015;28;20174;-80
2023/06/10 14:14:52;;;;;;;5.00;3.07;;;;;;;;;;5035794;28;20776;-82
2023/06/10 14:17:18;;;;;;;5.80;2.70;;;;;;;;;;5034868;28;20178;-81
2023/06/10 14:19:44;;;;;;;4.17;2.60;;;;;;;;;;5036024;28;20178;-81
2023/06/10 14:22:10;;;;;;;3.40;2.53;;;;;;;;;;5035874;28;20214;-80
2023/06/10 14:24:37;;;;;;;4.10;2.10;;;;;;;;;;5035899;28;20859;-82
2023/06/10 14:27:03;;;;;;;5.33;2.30;;;;;;;;;;5036359;28;20170;-82
2023/06/10 14:29:30;;;;;;;4.97;2.30;;;;;;;;;;5036225;28;20963;-87
2023/06/10 14:31:56;;;;;;;3.87;1.70;;;;;;;;;;5030315;28;20484;-83
2023/06/10 14:34:28;;;;;;;5.00;2.57;;;;;;;;;;5027284;28;20438;-80
2023/06/10 14:36:54;;;;;;;3.37;2.40;;;;;;;;;;5026186;28;20229;-84
2023/06/10 14:39:22;;;;;;;2.57;2.10;;;;;;;;;;5025169;28;20421;-82
2023/06/10 14:41:48;;;;;;;4.20;1.83;;;;;;;;;;5032075;28;20221;-84